Time;durP1;ratioP1;P1;durP2;ratioP2;P2;SDS_P1;SDS_P2;PMS_P1;PMS_P2;Temp;Humidity;BMP_temperature;BMP_pressure;BME280_temperature;BME280_humidity;BME280_pressure;Samples;Min_cycle;Max_cycle;Signal;HPM_P1;HPM_P2
2022/06/03 00:05:22;;;;;;;6.53;5.90;;;;;;;9.04;67.53;101233.15;3396519;81;21539;-77
2022/06/03 00:10:31;;;;;;;5.53;4.40;;;;;;;9.04;67.53;101233.15;3393813;80;21495;-77
2022/06/03 00:15:54;;;;;;;5.65;5.10;;;;;;;9.02;67.69;101240.01;3423249;80;20932;-77
2022/06/03 00:20:56;;;;;;;6.97;4.83;;;;;;;9.01;67.75;101231.75;3399806;81;21510;-77
2022/06/03 00:26:27;;;;;;;5.15;4.58;;;;;;;8.81;67.56;101227.66;3505462;80;21442;-78
2022/06/03 00:32:03;;;;;;;5.10;3.75;;;;;;;8.77;67.96;101236.63;3432893;80;20984;-77
2022/06/03 00:37:33;;;;;;;3.95;3.65;;;;;;;8.74;68.03;101223.55;3437918;80;20993;-77
2022/06/03 00:42:33;;;;;;;5.72;3.75;;;;;;;8.69;68.11;101231.62;3525707;78;21390;-77
2022/06/03 00:48:15;;;;;;;5.78;4.17;;;;;;;8.51;68.22;101237.08;3556868;78;21452;-77
2022/06/03 00:53:31;;;;;;;4.12;3.60;;;;;;;8.51;68.22;101237.08;3437033;81;21549;-76
2022/06/03 00:58:48;;;;;;;4.70;4.17;;;;;;;8.53;68.55;101235.80;3456313;81;21023;-76
2022/06/03 01:04:03;;;;;;;5.53;4.07;;;;;;;8.49;68.23;101229.63;3430188;81;21151;-76
2022/06/03 01:09:24;;;;;;;5.03;4.42;;;;;;;8.35;68.06;101243.80;3461607;80;21527;-77
2022/06/03 01:14:38;;;;;;;4.60;4.20;;;;;;;8.30;68.47;101246.25;3458620;81;20938;-77
2022/06/03 01:19:43;;;;;;;5.67;4.15;;;;;;;8.23;68.40;101245.57;3404586;80;21188;-77
2022/06/03 01:24:46;;;;;;;5.12;4.60;;;;;;;8.17;68.48;101250.13;3483514;79;21026;-77
2022/06/03 01:30:00;;;;;;;5.78;4.95;;;;;;;8.08;68.57;101244.59;3520034;78;21005;-77
2022/06/03 01:35:02;;;;;;;6.08;5.30;;;;;;;8.08;68.57;101244.59;3530375;79;21044;-77
2022/06/03 01:40:08;;;;;;;6.58;5.90;;;;;;;7.93;68.44;101246.23;3502677;79;20956;-77
2022/06/03 01:45:44;;;;;;;8.18;5.42;;;;;;;7.77;68.44;101243.49;3536062;78;21488;-77
2022/06/03 01:51:01;;;;;;;5.17;4.67;;;;;;;7.67;68.95;101239.22;3520972;79;21074;-77
2022/06/03 01:56:21;;;;;;;5.92;4.72;;;;;;;7.63;68.78;101241.69;3482281;79;21020;-77
2022/06/03 02:01:45;;;;;;;5.40;4.83;;;;;;;7.58;69.06;101244.93;3494989;79;20966;-77
2022/06/03 02:07:28;;;;;;;5.83;5.33;;;;;;;7.57;69.20;101245.34;3468997;80;21068;-77
2022/06/03 02:12:54;;;;;;;7.30;5.45;;;;;;;7.51;69.16;101242.55;3385852;81;21518;-77
2022/06/03 02:18:27;;;;;;;8.65;6.17;;;;;;;7.46;69.19;101246.66;3398668;82;21006;-77
2022/06/03 02:23:52;;;;;;;13.58;7.53;;;;;;;7.41;69.25;101243.01;3424568;81;21551;-77
2022/06/03 02:35:00;;;;;;;6.28;4.25;;;;;;;7.36;69.18;101243.24;3421521;82;21441;-77
2022/06/03 02:40:23;;;;;;;6.08;5.53;;;;;;;7.33;69.53;101245.70;3400023;81;21384;-78
2022/06/03 02:45:25;;;;;;;5.15;4.70;;;;;;;7.35;69.43;101250.52;3595906;77;20913;-77
2022/06/03 02:50:40;;;;;;;7.17;5.97;;;;;;;7.31;69.23;101243.47;3570081;77;20915;-77
2022/06/03 02:56:15;;;;;;;6.22;5.05;;;;;;;7.33;69.41;101257.34;3560211;79;20946;-77
2022/06/03 03:01:51;;;;;;;6.47;5.28;;;;;;;7.35;69.29;101271.22;3451007;79;21016;-78
2022/06/03 03:07:22;;;;;;;7.17;4.85;;;;;;;7.30;69.42;101272.73;3445338;80;21542;-77
2022/06/03 03:12:37;;;;;;;8.23;5.50;;;;;;;7.31;69.52;101280.98;3517463;77;22036;-77
2022/06/03 03:18:12;;;;;;;6.53;5.30;;;;;;;7.72;69.66;101286.86;3539836;78;20931;-77
2022/06/03 03:23:27;;;;;;;9.03;5.17;;;;;;;8.06;68.97;101294.16;3592926;78;21001;-77
2022/06/03 03:28:42;;;;;;;5.30;4.83;;;;;;;9.61;67.89;101295.02;3559569;78;20982;-77
2022/06/03 03:34:20;;;;;;;5.55;5.05;;;;;;;11.18;65.89;101284.95;3575208;78;21444;-78
2022/06/03 03:39:42;;;;;;;9.18;5.90;;;;;;;11.43;63.86;101285.96;3572058;78;21113;-78
2022/06/03 03:45:06;;;;;;;5.80;5.30;;;;;;;10.80;63.78;101303.98;3560524;77;20998;-78
2022/06/03 03:50:34;;;;;;;8.25;5.55;;;;;;;10.72;63.78;101311.13;3563714;78;20881;-77
2022/06/03 03:55:57;;;;;;;6.50;5.47;;;;;;;10.50;64.19;101315.77;3536867;78;21009;-78
2022/06/03 04:01:41;;;;;;;6.33;5.40;;;;;;;9.92;64.98;101328.83;3538018;78;22057;-78
2022/06/03 04:07:02;;;;;;;6.65;5.92;;;;;;;9.56;65.86;101326.44;3541197;78;21029;-77
2022/06/03 04:12:26;;;;;;;8.08;6.65;;;;;;;9.04;67.73;101326.95;3561940;77;21029;-77
2022/06/03 04:18:04;;;;;;;8.18;7.42;;;;;;;9.04;67.73;101326.95;3557523;78;20947;-78
2022/06/03 04:23:34;;;;;;;16.05;8.40;;;;;;;8.93;68.09;101327.90;3558236;78;21419;-78
2022/06/03 04:28:43;;;;;;;10.38;9.08;;;;;;;8.92;70.23;101326.12;3570406;77;20984;-78
2022/06/03 04:34:13;;;;;;;9.25;8.30;;;;;;;8.92;70.23;101326.12;3523633;77;20974;-77
2022/06/03 04:39:40;;;;;;;10.18;9.10;;;;;;;9.18;71.19;101341.69;3548728;78;21041;-77
2022/06/03 04:45:14;;;;;;;10.43;9.48;;;;;;;9.18;71.19;101341.69;3555865;77;20926;-77
2022/06/03 04:50:16;;;;;;;10.05;8.20;;;;;;;9.38;71.94;101340.59;3518638;78;20997;-78
2022/06/03 04:55:34;;;;;;;12.60;10.03;;;;;;;9.59;72.47;101344.72;3540879;77;21218;-76
2022/06/03 05:00:52;;;;;;;12.00;9.15;;;;;;;9.79;72.61;101343.59;3520498;78;21006;-76
2022/06/03 05:06:21;;;;;;;11.35;9.28;;;;;;;10.01;73.12;101348.13;3447666;80;20936;-76
2022/06/03 05:12:01;;;;;;;11.70;9.05;;;;;;;10.24;73.55;101347.50;3443863;80;21312;-76
2022/06/03 05:17:15;;;;;;;12.80;8.70;;;;;;;10.49;73.75;101349.09;3459278;80;20979;-76
2022/06/03 05:22:29;;;;;;;9.40;8.10;;;;;;;10.78;73.25;101348.98;3325621;84;21003;-76
2022/06/03 05:28:00;;;;;;;9.73;7.90;;;;;;;11.09;73.26;101345.86;3339864;84;21185;-76
2022/06/03 05:33:33;;;;;;;7.25;5.92;;;;;;;11.34;73.33;101346.03;3323677;84;21046;-76
2022/06/03 05:38:41;;;;;;;8.78;6.17;;;;;;;11.90;72.23;101346.49;3348427;83;20963;-77
2022/06/03 05:43:57;;;;;;;5.85;5.08;;;;;;;12.17;72.28;101347.92;3311645;83;20958;-77
2022/06/03 05:49:15;;;;;;;4.75;4.22;;;;;;;12.86;70.84;101349.24;3313615;84;21263;-77
2022/06/03 05:54:32;;;;;;;4.42;3.67;;;;;;;13.84;68.88;101352.95;3341023;84;21097;-77
2022/06/03 05:59:47;;;;;;;3.85;3.50;;;;;;;13.87;68.23;101358.23;3500154;78;20981;-77
2022/06/03 06:05:10;;;;;;;4.40;3.20;;;;;;;14.03;67.38;101354.09;3555990;77;20994;-77
2022/06/03 06:10:37;;;;;;;3.47;2.55;;;;;;;14.15;66.42;101369.04;3543664;78;21673;-77
2022/06/03 06:16:14;;;;;;;2.60;2.35;;;;;;;14.34;65.19;101364.48;3549857;78;21911;-77
2022/06/03 06:21:16;;;;;;;4.37;2.87;;;;;;;14.49;64.31;101365.12;3471490;80;20893;-78
2022/06/03 06:26:19;;;;;;;2.35;2.15;;;;;;;14.77;63.70;101361.50;3454267;80;22168;-78
2022/06/03 06:31:55;;;;;;;3.83;2.30;;;;;;;14.98;63.22;101369.55;3473944;81;20979;-78
2022/06/03 06:36:58;;;;;;;3.95;2.65;;;;;;;15.58;62.77;101363.50;3422084;80;21553;-78
2022/06/03 06:42:28;;;;;;;5.45;3.02;;;;;;;16.08;61.13;101358.53;3471054;80;22005;-78
2022/06/03 06:47:43;;;;;;;2.50;2.30;;;;;;;16.80;59.71;101360.09;3440636;81;20917;-78
2022/06/03 06:52:58;;;;;;;2.77;2.17;;;;;;;16.86;58.45;101360.55;3450830;80;20959;-78
2022/06/03 06:58:01;;;;;;;4.33;2.60;;;;;;;17.47;56.82;101358.36;3459994;80;21488;-78
2022/06/03 07:03:04;;;;;;;2.27;2.05;;;;;;;17.85;56.80;101355.70;3464365;80;20960;-78
2022/06/03 07:08:10;;;;;;;1.85;1.75;;;;;;;18.34;55.43;101356.39;3449929;80;21352;-79
2022/06/03 07:13:19;;;;;;;2.63;2.10;;;;;;;19.57;52.79;101352.86;3477438;80;21529;-79
2022/06/03 07:23:52;;;;;;;2.72;2.47;;;;;;;21.78;49.44;101339.97;3493159;80;21548;-77
2022/06/03 07:28:55;;;;;;;2.15;2.05;;;;;;;24.43;46.04;101326.73;3440026;80;20951;-77
2022/06/03 07:34:04;;;;;;;2.52;2.30;;;;;;;26.45;43.10;101321.89;3485663;80;22099;-78
2022/06/03 07:39:00;;;;;;;2.15;2.00;;;;;;;25.93;43.16;101326.55;3472120;80;21543;-76
2022/06/03 07:44:02;;;;;;;2.22;2.05;;;;;;;29.66;39.25;101318.20;3433451;81;20955;-78
2022/06/03 07:48:54;;;;;;;2.55;2.35;;;;;;;32.30;37.08;101314.34;3444815;81;20928;-78
2022/06/03 07:54:05;;;;;;;2.12;1.92;;;;;;;33.22;35.40;101317.25;3437334;80;21511;-78
2022/06/03 07:59:02;;;;;;;3.17;1.60;;;;;;;32.28;35.15;101328.39;3439188;80;21118;-77
2022/06/03 08:03:53;;;;;;;1.57;1.47;;;;;;;31.26;33.88;101328.91;3393761;80;20980;-76
2022/06/03 08:13:58;;;;;;;2.12;2.02;;;;;;;27.88;35.23;101336.33;3385639;80;21003;-77
2022/06/03 08:18:50;;;;;;;3.10;1.67;;;;;;;28.75;33.62;101324.67;3391928;80;20993;-78
2022/06/03 08:23:44;;;;;;;2.72;2.27;;;;;;;32.05;30.81;101323.15;3407919;81;21743;-78
2022/06/03 08:28:39;;;;;;;2.50;1.50;;;;;;;34.12;29.11;101324.79;3408973;80;21043;-78
2022/06/03 08:33:48;;;;;;;1.20;1.10;;;;;;;36.15;28.27;101320.51;3424323;81;20987;-79
2022/06/03 08:38:54;;;;;;;1.32;1.32;;;;;;;36.67;26.94;101322.11;3409508;81;21299;-79
2022/06/03 08:44:06;;;;;;;1.50;1.40;;;;;;;33.68;28.03;101320.80;3415755;80;20966;-79
2022/06/03 08:49:06;;;;;;;1.55;1.45;;;;;;;36.02;26.22;101300.36;3476199;80;22223;-80
2022/06/03 08:54:26;;;;;;;2.35;1.75;;;;;;;37.23;25.24;101297.95;3452799;80;21037;-78
2022/06/03 08:59:31;;;;;;;4.47;1.40;;;;;;;33.11;27.40;101307.66;3521959;79;21059;-79
2022/06/03 09:04:41;;;;;;;;;;;;;;;29.50;29.96;101313.27;3440992;79;21012;-79
2022/06/03 09:09:54;;;;;;;3.22;1.70;;;;;;;26.97;30.94;101315.80;3448748;79;20167;-80
2022/06/03 09:14:52;;;;;;;2.05;1.85;;;;;;;25.56;32.81;101302.16;3415982;80;21155;-80
2022/06/03 09:19:46;;;;;;;2.45;2.08;;;;;;;25.22;33.76;101311.31;3424657;81;21027;-79
2022/06/03 09:24:40;;;;;;;1.98;1.85;;;;;;;27.99;31.54;101303.80;3424783;80;21500;-78
2022/06/03 09:29:32;;;;;;;2.08;1.98;;;;;;;27.44;31.88;101305.36;3472849;80;20975;-77
2022/06/03 09:34:41;;;;;;;2.92;2.00;;;;;;;27.57;32.15;101297.66;3400857;80;39821;-80
2022/06/03 09:39:33;;;;;;;2.20;2.00;;;;;;;27.25;32.59;101295.91;3445401;80;21732;-76
2022/06/03 09:44:26;;;;;;;2.17;1.98;;;;;;;28.36;30.80;101301.58;3391370;80;20956;-80
2022/06/03 09:49:19;;;;;;;2.35;2.22;;;;;;;30.51;30.55;101298.83;3442694;80;20959;-83
2022/06/03 09:54:14;;;;;;;1.92;1.82;;;;;;;28.34;31.94;101296.77;3473403;80;20975;-79
2022/06/03 09:59:07;;;;;;;1.95;1.70;;;;;;;27.03;33.46;101304.47;3441154;80;20969;-78
2022/06/03 10:04:03;;;;;;;1.80;1.50;;;;;;;29.89;30.63;101296.02;3447527;80;22360;-76
2022/06/03 10:14:05;;;;;;;1.85;1.60;;;;;;;29.90;30.39;101288.84;3420934;80;21063;-76
2022/06/03 10:18:56;;;;;;;2.35;1.70;;;;;;;28.68;31.05;101287.13;3428718;80;20994;-74
2022/06/03 10:23:59;;;;;;;1.72;1.42;;;;;;;28.61;31.63;101285.70;3469966;81;21480;-76
2022/06/03 10:28:55;;;;;;;1.62;1.30;;;;;;;27.89;31.36;101279.30;3465140;81;22286;-75
2022/06/03 10:33:56;;;;;;;1.60;1.40;;;;;;;30.74;29.79;101266.59;3439735;80;21592;-77
2022/06/03 10:38:49;;;;;;;1.55;1.42;;;;;;;32.67;28.06;101260.78;3433965;80;21007;-79
2022/06/03 10:43:41;;;;;;;3.50;2.45;;;;;;;33.79;26.02;101258.86;3439626;80;21547;-77
2022/06/03 10:48:34;;;;;;;1.57;1.47;;;;;;;34.11;26.61;101254.75;3428487;80;21559;-78
2022/06/03 11:03:59;;;;;;;1.87;1.70;;;;;;;33.46;26.64;101262.59;3492541;80;20968;-77
2022/06/03 11:09:00;;;;;;;1.75;1.65;;;;;;;31.53;28.35;101258.74;3446536;80;21538;-78
2022/06/03 11:13:51;;;;;;;1.95;1.45;;;;;;;30.01;28.73;101244.86;3476696;80;21579;-77
2022/06/03 11:18:43;;;;;;;1.70;1.60;;;;;;;29.21;30.21;101243.38;3482169;80;21166;-77
2022/06/03 11:23:35;;;;;;;1.65;1.50;;;;;;;28.69;29.27;101236.22;3503838;80;21426;-78
2022/06/03 11:28:40;;;;;;;1.87;1.45;;;;;;;28.40;30.76;101237.66;3497834;80;20922;-78
2022/06/03 11:34:10;;;;;;;1.90;1.80;;;;;;;28.17;30.20;101240.58;3464074;80;20935;-74
2022/06/03 11:39:36;;;;;;;1.77;1.60;;;;;;;28.09;31.20;101227.11;3498895;80;20929;-75
2022/06/03 11:44:43;;;;;;;;;;;;;;;27.94;31.25;101226.06;3467000;79;21576;-76
2022/06/03 11:49:35;;;;;;;1.82;1.72;;;;;;;26.67;32.20;101221.93;3478796;80;20365;-76
2022/06/03 11:54:28;;;;;;;1.40;1.30;;;;;;;27.18;32.20;101218.38;3484748;80;20945;-76
2022/06/03 11:59:52;;;;;;;2.22;1.55;;;;;;;27.43;32.57;101209.30;3501304;80;21001;-79
2022/06/03 12:04:55;;;;;;;1.77;1.67;;;;;;;27.66;32.85;101208.23;3496312;80;20976;-78
2022/06/03 12:10:19;;;;;;;1.45;1.45;;;;;;;27.06;32.12;101199.80;3471085;80;21066;-78
2022/06/03 12:15:34;;;;;;;1.57;1.47;;;;;;;27.28;31.84;101203.72;3444469;80;21016;-78
2022/06/03 12:20:50;;;;;;;1.62;1.52;;;;;;;27.20;32.19;101181.80;3490303;79;20985;-78
2022/06/03 12:25:53;;;;;;;1.82;1.42;;;;;;;26.42;31.40;101201.59;3445545;80;21756;-78
2022/06/03 12:30:57;;;;;;;1.40;1.30;;;;;;;25.57;32.46;101177.89;3490062;80;21009;-78
2022/06/03 12:35:57;;;;;;;2.52;1.60;;;;;;;25.20;33.38;101184.55;3430133;81;21027;-78
2022/06/03 12:40:56;;;;;;;1.62;1.52;;;;;;;25.36;33.26;101181.78;3425656;81;21487;-79
2022/06/03 12:46:10;;;;;;;1.55;1.45;;;;;;;25.60;34.12;101171.12;3567722;79;20983;-79
2022/06/03 12:51:28;;;;;;;1.50;1.40;;;;;;;26.34;33.80;101163.71;3447872;79;21472;-79
2022/06/03 12:56:46;;;;;;;1.70;1.60;;;;;;;26.43;33.25;101165.13;3511362;77;21017;-81
2022/06/03 13:01:45;;;;;;;1.40;1.30;;;;;;;25.67;33.73;101168.63;3549132;79;21379;-79
2022/06/03 13:06:59;;;;;;;3.35;1.95;;;;;;;25.83;33.86;101156.91;3527084;77;21578;-80
2022/06/03 13:11:55;;;;;;;3.27;1.85;;;;;;;26.46;33.53;101150.34;3491328;79;21516;-80
2022/06/03 13:16:48;;;;;;;1.97;1.87;;;;;;;26.50;32.73;101153.74;3511645;77;20982;-80
2022/06/03 13:22:02;;;;;;;4.17;1.55;;;;;;;26.64;34.11;101159.38;3487847;77;21030;-81
2022/06/03 13:27:24;;;;;;;2.75;1.77;;;;;;;26.93;33.39;101160.76;3585491;78;21610;-79
2022/06/03 13:32:39;;;;;;;1.60;1.50;;;;;;;27.20;31.62;101153.78;3592781;78;20911;-78
2022/06/03 13:37:50;;;;;;;2.70;1.67;;;;;;;27.30;32.12;101142.27;3572116;78;20978;-78
2022/06/03 13:43:02;;;;;;;1.62;1.50;;;;;;;27.52;32.77;101146.97;3592943;79;21045;-85
2022/06/03 13:47:55;;;;;;;1.50;1.40;;;;;;;27.61;31.78;101136.33;3506100;79;20952;-77
2022/06/03 13:53:00;;;;;;;1.62;1.52;;;;;;;27.74;31.79;101128.14;3502929;79;21801;-80
2022/06/03 13:58:14;;;;;;;1.70;1.60;;;;;;;27.93;32.52;101117.42;3551713;79;21026;-78
2022/06/03 14:03:15;;;;;;;1.52;1.42;;;;;;;27.98;31.70;101120.36;3554626;78;20967;-77
2022/06/03 14:08:33;;;;;;;1.52;1.42;;;;;;;28.10;31.78;101108.58;3547202;78;21205;-75
2022/06/03 14:13:47;;;;;;;2.00;1.62;;;;;;;28.18;32.12;101110.00;3542264;78;21097;-79
2022/06/03 14:19:02;;;;;;;2.87;2.05;;;;;;;27.91;31.32;101094.41;3357929;83;21172;-79
2022/06/03 14:23:56;;;;;;;2.00;1.55;;;;;;;26.95;31.26;101093.55;3257042;84;21777;-79
2022/06/03 14:29:04;;;;;;;2.10;1.60;;;;;;;27.16;31.60;101087.67;3373101;81;21038;-81
2022/06/03 14:34:00;;;;;;;5.58;2.42;;;;;;;27.39;31.09;101079.09;3397297;81;21645;-78
2022/06/03 14:39:11;;;;;;;;;;;;;;;27.03;31.29;101069.66;3378952;81;21527;-80
2022/06/03 14:44:05;;;;;;;2.33;1.50;;;;;;;27.30;32.71;101071.05;3372743;82;21467;-80
2022/06/03 14:49:04;;;;;;;1.80;1.67;;;;;;;27.47;31.55;101065.36;3359712;82;21557;-80
2022/06/03 14:54:01;;;;;;;2.00;1.90;;;;;;;27.34;31.36;101071.28;3429075;79;20995;-79
2022/06/03 14:58:56;;;;;;;1.52;1.42;;;;;;;27.22;31.25;101061.63;3556459;78;20935;-79
